Terminal Aerodrome Forecast
Issued by NWS

Home | Current Version | Previous Version | Graphics & Text | Print | Product List | Glossary On
Versions: 1 2 3 4 5 6 7 8 9 10 11 12 13 14 15 16 17 18 19 20 21 22 23 24 25 26 27 28 29 30 31 32 33 34 35 36 37 38 39 40 41 42 43 44 45
912
FTUS43 KGRB 150520
TAFRHI
TAF
KRHI 150520Z 1506/1606 28006KT 6SM -SHSN OVC035
      TEMPO 1506/1510 2SM -SHSN BKN018
     FM151000 29006KT P6SM -SHSN OVC022
     FM152000 28006KT P6SM -SHSN BKN030
     FM160000 28002KT P6SM BKN040=

USA.gov is the U.S. government's official web portal to all federal, state and local government web resources and services.